Time;durP1;ratioP1;P1;durP2;ratioP2;P2;SDS_P1;SDS_P2;PMS_P1;PMS_P2;Temp;Humidity;BMP_temperature;BMP_pressure;BME280_temperature;BME280_humidity;BME280_pressure;Samples;Min_cycle;Max_cycle;Signal;HPM_P1;HPM_P2
2022/06/27 00:00:48;;;;;;;2.87;1.80;;;20.10;99.90;;;;;;4985766;28;20513;-60
2022/06/27 00:03:15;;;;;;;4.13;1.70;;;19.80;99.90;;;;;;4978551;28;20203;-60
2022/06/27 00:05:41;;;;;;;2.07;1.77;;;19.60;99.90;;;;;;4985881;28;20957;-59
2022/06/27 00:08:06;;;;;;;2.60;1.60;;;19.50;99.90;;;;;;4986928;28;20432;-60
2022/06/27 00:10:32;;;;;;;2.50;1.40;;;19.30;99.90;;;;;;4980554;28;20204;-59
2022/06/27 00:12:58;;;;;;;1.60;1.50;;;19.20;99.90;;;;;;4988461;28;20277;-60
2022/06/27 00:15:24;;;;;;;2.17;1.50;;;19.20;99.90;;;;;;4979141;28;20170;-60
2022/06/27 00:17:49;;;;;;;1.80;1.50;;;19.10;99.90;;;;;;4981983;28;20606;-60
2022/06/27 00:20:15;;;;;;;2.20;1.57;;;19.00;99.90;;;;;;4973614;28;20182;-60
2022/06/27 00:22:41;;;;;;;1.37;1.27;;;19.10;99.90;;;;;;4987563;28;20196;-60
2022/06/27 00:25:08;;;;;;;1.77;1.60;;;19.10;99.90;;;;;;4987754;28;20181;-59
2022/06/27 00:27:34;;;;;;;4.33;2.00;;;19.10;99.90;;;;;;4986651;28;20184;-59
2022/06/27 00:30:00;;;;;;;2.80;2.17;;;19.10;99.90;;;;;;4986094;28;20424;-60
2022/06/27 00:32:26;;;;;;;2.53;1.50;;;19.10;99.90;;;;;;4986146;28;20574;-60
2022/06/27 00:34:52;;;;;;;2.43;1.63;;;19.10;99.90;;;;;;4988657;28;20216;-60
2022/06/27 00:37:18;;;;;;;2.70;1.13;;;19.10;99.90;;;;;;4976250;28;20431;-60
2022/06/27 00:39:44;;;;;;;1.33;1.23;;;19.10;99.90;;;;;;4981066;28;20428;-60
2022/06/27 00:42:09;;;;;;;1.30;1.20;;;19.10;99.90;;;;;;4985925;28;20451;-60
2022/06/27 00:44:41;;;;;;;1.40;1.30;;;19.10;99.90;;;;;;4986910;28;20189;-60
2022/06/27 00:47:09;;;;;;;1.40;1.30;;;19.10;99.90;;;;;;4979587;28;20185;-59
2022/06/27 00:49:35;;;;;;;1.83;1.23;;;19.00;99.90;;;;;;4985335;28;20491;-60
2022/06/27 00:52:09;;;;;;;1.50;1.33;;;19.00;99.90;;;;;;4987593;28;20459;-60
2022/06/27 00:54:37;;;;;;;1.20;1.10;;;19.00;99.90;;;;;;4982326;28;20520;-60
2022/06/27 00:57:04;;;;;;;1.47;1.10;;;19.00;99.90;;;;;;4985969;28;21101;-60
2022/06/27 00:59:30;;;;;;;0.93;0.93;;;18.90;99.90;;;;;;4988224;28;20444;-61
2022/06/27 01:01:55;;;;;;;1.23;0.90;;;18.90;99.90;;;;;;4984568;28;20452;-60
2022/06/27 01:04:22;;;;;;;2.00;1.10;;;18.90;99.90;;;;;;4986848;28;20227;-60
2022/06/27 01:06:54;;;;;;;2.10;1.30;;;18.90;99.90;;;;;;4988031;28;20627;-60
2022/06/27 01:09:21;;;;;;;1.70;1.10;;;18.90;99.90;;;;;;4980515;28;20850;-60
2022/06/27 01:11:47;;;;;;;4.93;1.27;;;18.90;99.90;;;;;;4981661;28;20519;-60
2022/06/27 01:14:13;;;;;;;2.40;1.17;;;18.90;99.90;;;;;;4988356;28;20404;-60
2022/06/27 01:16:41;;;;;;;1.90;1.13;;;18.90;99.90;;;;;;4986507;28;20455;-61
2022/06/27 01:19:13;;;;;;;2.00;1.07;;;18.90;99.90;;;;;;4987317;28;20173;-61
2022/06/27 01:21:47;;;;;;;1.20;1.00;;;18.80;99.90;;;;;;4986121;28;20456;-60
2022/06/27 01:24:13;;;;;;;1.13;1.07;;;18.80;99.90;;;;;;4980632;28;20945;-60
2022/06/27 01:26:42;;;;;;;1.20;1.10;;;18.80;99.90;;;;;;4980874;28;20421;-60
2022/06/27 01:29:08;;;;;;;1.27;1.10;;;18.80;99.90;;;;;;4981238;28;20177;-60
2022/06/27 01:31:36;;;;;;;1.20;1.10;;;18.80;99.90;;;;;;4984948;28;20487;-60
2022/06/27 01:34:02;;;;;;;1.47;1.10;;;18.80;99.90;;;;;;4998572;28;20824;-60
2022/06/27 01:36:43;;;;;;;1.83;0.90;;;18.80;99.90;;;;;;4991384;28;20833;-60
2022/06/27 01:39:20;;;;;;;6.83;1.00;;;18.80;99.90;;;;;;4997535;28;20518;-60
2022/06/27 01:41:54;;;;;;;1.80;1.03;;;18.80;99.90;;;;;;4990128;28;20455;-60
2022/06/27 01:44:22;;;;;;;1.10;1.00;;;18.80;99.90;;;;;;4986389;28;20435;-59
2022/06/27 01:47:01;;;;;;;1.00;0.90;;;18.80;99.90;;;;;;4988767;28;20427;-60
2022/06/27 01:49:29;;;;;;;4.87;1.30;;;18.70;99.90;;;;;;4990368;28;20428;-60
2022/06/27 01:51:55;;;;;;;1.93;1.03;;;18.70;99.90;;;;;;4990366;28;20452;-60
2022/06/27 01:54:22;;;;;;;1.17;0.93;;;18.70;99.90;;;;;;4989693;28;20439;-60
2022/06/27 01:56:49;;;;;;;1.17;0.90;;;18.60;99.90;;;;;;4976946;28;20435;-60
2022/06/27 01:59:17;;;;;;;1.60;1.30;;;18.60;99.90;;;;;;4989348;28;20435;-60
2022/06/27 02:01:44;;;;;;;1.40;1.30;;;18.50;99.90;;;;;;4983648;28;20876;-60
2022/06/27 02:04:12;;;;;;;1.53;1.10;;;18.50;99.90;;;;;;4986710;28;20468;-60
2022/06/27 02:06:38;;;;;;;1.20;1.10;;;18.50;99.90;;;;;;4989273;28;20455;-60
2022/06/27 02:09:06;;;;;;;2.20;1.00;;;18.40;99.90;;;;;;4988597;28;20432;-60
2022/06/27 02:11:32;;;;;;;4.50;1.20;;;18.40;99.90;;;;;;4988300;28;20487;-59
2022/06/27 02:13:58;;;;;;;1.07;1.07;;;18.40;99.90;;;;;;4989063;28;21051;-61
2022/06/27 02:16:24;;;;;;;3.00;1.20;;;18.30;99.90;;;;;;4990649;28;20176;-59
2022/06/27 02:18:50;;;;;;;0.90;0.90;;;18.30;99.90;;;;;;4986451;28;20483;-60
2022/06/27 02:21:22;;;;;;;1.27;1.17;;;18.30;99.90;;;;;;4978124;28;20448;-60
2022/06/27 02:23:49;;;;;;;1.10;1.00;;;18.30;99.90;;;;;;4988958;28;20182;-60
2022/06/27 02:26:15;;;;;;;2.27;1.40;;;18.20;99.90;;;;;;4987374;28;20507;-60
2022/06/27 02:28:42;;;;;;;1.90;1.00;;;18.20;99.90;;;;;;4988974;28;20425;-60
2022/06/27 02:31:09;;;;;;;1.03;1.03;;;18.20;99.90;;;;;;4983580;28;20459;-60
2022/06/27 02:33:36;;;;;;;1.53;1.20;;;18.20;99.90;;;;;;4987552;28;20499;-59
2022/06/27 02:36:05;;;;;;;2.73;1.23;;;18.20;99.90;;;;;;4981569;28;20416;-59
2022/06/27 02:38:31;;;;;;;1.50;1.40;;;18.20;99.90;;;;;;4988177;28;20490;-59
2022/06/27 02:41:04;;;;;;;5.53;1.23;;;18.20;99.90;;;;;;4990313;28;20440;-59
2022/06/27 02:43:32;;;;;;;1.50;1.40;;;18.10;99.90;;;;;;4987945;28;20431;-59
2022/06/27 02:45:58;;;;;;;1.93;1.50;;;18.10;99.90;;;;;;4986984;28;20432;-60
2022/06/27 02:48:25;;;;;;;2.43;1.20;;;18.10;99.90;;;;;;4988903;28;20420;-60
2022/06/27 02:50:54;;;;;;;1.50;1.40;;;18.10;99.90;;;;;;4986107;28;20202;-59
2022/06/27 02:53:25;;;;;;;1.67;1.57;;;18.10;99.90;;;;;;4982283;28;20460;-59
2022/06/27 02:55:54;;;;;;;1.77;1.67;;;18.10;99.90;;;;;;4978957;28;20579;-59
2022/06/27 02:58:35;;;;;;;1.70;1.60;;;18.00;99.90;;;;;;4989357;28;20423;-59
2022/06/27 03:01:03;;;;;;;1.30;1.20;;;18.00;99.90;;;;;;4986327;28;20452;-59
2022/06/27 03:03:32;;;;;;;2.00;1.40;;;18.00;99.90;;;;;;4984537;28;20519;-59
2022/06/27 03:06:06;;;;;;;2.27;1.70;;;18.00;99.90;;;;;;4988620;28;20951;-59
2022/06/27 03:08:41;;;;;;;2.57;1.33;;;18.00;99.90;;;;;;4987594;28;21047;-59
2022/06/27 03:11:07;;;;;;;2.97;1.47;;;18.00;99.90;;;;;;4974785;28;20494;-59
2022/06/27 03:13:33;;;;;;;1.30;1.20;;;17.90;99.90;;;;;;4990052;28;20459;-59
2022/06/27 03:15:59;;;;;;;1.10;1.10;;;17.90;99.90;;;;;;4989321;28;20400;-60
2022/06/27 03:18:25;;;;;;;1.33;1.13;;;17.80;99.90;;;;;;4988430;28;20432;-59
2022/06/27 03:20:51;;;;;;;5.43;1.40;;;17.80;99.90;;;;;;4987871;28;20205;-59
2022/06/27 03:23:18;;;;;;;3.37;1.27;;;17.80;99.90;;;;;;4989381;28;20515;-59
2022/06/27 03:25:44;;;;;;;1.63;1.53;;;17.80;99.90;;;;;;4987902;28;20654;-59
2022/06/27 03:28:10;;;;;;;6.63;2.27;;;17.70;99.90;;;;;;4980584;28;20432;-59
2022/06/27 03:30:35;;;;;;;2.50;1.73;;;17.70;99.90;;;;;;4990214;28;20452;-59
2022/06/27 03:33:01;;;;;;;1.67;1.57;;;17.70;99.90;;;;;;4989710;28;20207;-59
2022/06/27 03:35:26;;;;;;;5.50;1.70;;;17.70;99.90;;;;;;4987244;28;20631;-60
2022/06/27 03:37:52;;;;;;;4.73;1.40;;;17.70;99.90;;;;;;4979548;28;20544;-61
2022/06/27 03:40:18;;;;;;;3.17;1.50;;;17.70;99.90;;;;;;4987854;28;20635;-59
2022/06/27 03:42:44;;;;;;;3.93;2.23;;;17.70;99.90;;;;;;4987649;28;20664;-60
2022/06/27 03:45:10;;;;;;;2.70;2.10;;;17.70;99.90;;;;;;4986353;28;20180;-59
2022/06/27 03:47:53;;;;;;;2.07;1.87;;;17.70;99.90;;;;;;4985707;28;20216;-60
2022/06/27 03:50:20;;;;;;;2.10;1.90;;;17.70;99.90;;;;;;4989127;28;20420;-59
2022/06/27 03:52:46;;;;;;;1.73;1.60;;;17.70;99.90;;;;;;4974190;28;21024;-59
2022/06/27 03:55:13;;;;;;;2.80;1.67;;;17.70;99.90;;;;;;4986640;28;20432;-60
2022/06/27 03:57:45;;;;;;;1.60;1.50;;;17.60;99.90;;;;;;4979056;28;20428;-60
2022/06/27 04:00:11;;;;;;;2.43;2.07;;;17.60;99.90;;;;;;4976380;28;20460;-57
2022/06/27 04:02:37;;;;;;;3.53;1.60;;;17.60;99.90;;;;;;4983459;28;20436;-59
2022/06/27 04:05:03;;;;;;;3.10;2.00;;;17.50;99.90;;;;;;4978845;28;20185;-58
2022/06/27 04:07:29;;;;;;;2.30;2.10;;;17.60;99.90;;;;;;4977491;28;20220;-58
2022/06/27 04:09:56;;;;;;;2.00;1.77;;;17.60;99.90;;;;;;4975674;28;22271;-58
2022/06/27 04:12:22;;;;;;;1.83;1.73;;;17.60;99.90;;;;;;4981365;28;20216;-59
2022/06/27 04:14:48;;;;;;;9.70;2.33;;;17.70;99.90;;;;;;4977001;28;20886;-57
2022/06/27 04:17:13;;;;;;;2.90;1.90;;;17.70;99.90;;;;;;4981379;28;20440;-58
2022/06/27 04:19:39;;;;;;;2.23;2.00;;;17.70;99.90;;;;;;4985343;28;20176;-58
2022/06/27 04:22:05;;;;;;;9.23;2.30;;;17.70;99.90;;;;;;4979673;28;20594;-57
2022/06/27 04:24:31;;;;;;;2.20;2.00;;;17.70;99.90;;;;;;4982282;28;20279;-57
2022/06/27 04:26:57;;;;;;;11.63;2.50;;;17.70;99.90;;;;;;4973497;28;20181;-58
2022/06/27 04:29:23;;;;;;;3.17;2.50;;;17.70;99.90;;;;;;4981229;28;20230;-58
2022/06/27 04:31:49;;;;;;;6.80;3.20;;;17.70;99.90;;;;;;4981586;28;22399;-57
2022/06/27 04:34:15;;;;;;;3.93;3.63;;;17.80;99.90;;;;;;4981316;28;20671;-57
2022/06/27 04:36:41;;;;;;;5.80;3.60;;;17.70;99.90;;;;;;4977783;28;20185;-57
2022/06/27 04:39:07;;;;;;;4.20;3.90;;;17.80;99.90;;;;;;4974299;28;20252;-57
2022/06/27 04:41:34;;;;;;;5.20;4.60;;;17.70;99.90;;;;;;4976182;28;20451;-58
2022/06/27 04:44:00;;;;;;;4.93;3.83;;;17.80;99.90;;;;;;4982999;28;20484;-58
2022/06/27 04:46:25;;;;;;;3.57;3.27;;;17.80;99.90;;;;;;4985905;28;20891;-58
2022/06/27 04:48:51;;;;;;;4.00;3.70;;;17.80;99.90;;;;;;4984986;28;20650;-58
2022/06/27 04:51:17;;;;;;;3.30;3.10;;;17.90;99.90;;;;;;4980668;28;20193;-61
2022/06/27 04:53:44;;;;;;;3.00;2.70;;;17.90;99.90;;;;;;4984977;28;20204;-61
2022/06/27 04:56:11;;;;;;;3.20;2.90;;;18.00;99.90;;;;;;4978645;28;20432;-60
2022/06/27 04:58:37;;;;;;;3.77;2.77;;;18.00;99.90;;;;;;4980247;28;20432;-61
2022/06/27 05:01:03;;;;;;;3.53;3.00;;;18.00;99.90;;;;;;4988884;28;20986;-61
2022/06/27 05:03:28;;;;;;;3.70;3.40;;;18.00;99.90;;;;;;4988597;28;20172;-60
2022/06/27 05:05:54;;;;;;;3.97;3.60;;;18.10;99.90;;;;;;4988392;28;20201;-61
2022/06/27 05:08:20;;;;;;;4.10;3.80;;;18.10;99.90;;;;;;4985738;28;20185;-61
2022/06/27 05:10:47;;;;;;;4.77;4.30;;;18.20;99.90;;;;;;4986499;28;20205;-61
2022/06/27 05:13:13;;;;;;;5.37;4.43;;;18.20;99.90;;;;;;4992119;28;20997;-61
2022/06/27 05:15:39;;;;;;;7.13;5.03;;;18.30;99.90;;;;;;4992343;28;20413;-61
2022/06/27 05:18:05;;;;;;;8.00;5.00;;;18.40;99.90;;;;;;4978830;28;20801;-61
2022/06/27 05:20:31;;;;;;;7.63;4.90;;;18.40;99.90;;;;;;4993058;28;20511;-61
2022/06/27 05:23:00;;;;;;;7.87;5.00;;;18.40;99.90;;;;;;4992467;28;20416;-61
2022/06/27 05:25:26;;;;;;;9.90;4.50;;;18.40;99.90;;;;;;4989673;28;20827;-61
2022/06/27 05:27:52;;;;;;;5.30;4.07;;;18.40;99.90;;;;;;4991318;28;20467;-61
2022/06/27 05:30:17;;;;;;;4.47;4.07;;;18.40;99.90;;;;;;4990808;28;20933;-61
2022/06/27 05:32:43;;;;;;;12.10;4.10;;;18.40;99.90;;;;;;4989352;28;20232;-62
2022/06/27 05:35:10;;;;;;;8.73;4.10;;;18.40;99.90;;;;;;4986490;28;20178;-63
2022/06/27 05:37:37;;;;;;;4.10;3.80;;;18.40;99.90;;;;;;4973162;28;20413;-60
2022/06/27 05:40:03;;;;;;;4.27;3.87;;;18.40;99.90;;;;;;4975614;28;20443;-62
2022/06/27 05:42:29;;;;;;;4.30;3.90;;;18.40;99.90;;;;;;4984500;28;20436;-61
2022/06/27 05:44:55;;;;;;;6.10;4.33;;;18.50;99.90;;;;;;4972305;28;20776;-61
2022/06/27 05:47:21;;;;;;;4.50;4.10;;;18.50;99.90;;;;;;4972422;28;20197;-60
2022/06/27 05:49:49;;;;;;;4.37;3.80;;;18.50;99.90;;;;;;4973439;28;20978;-61
2022/06/27 05:52:14;;;;;;;4.30;3.90;;;18.40;99.90;;;;;;4988726;28;20475;-61
2022/06/27 05:54:40;;;;;;;8.40;4.40;;;18.50;99.90;;;;;;4983409;28;20429;-61
2022/06/27 05:57:06;;;;;;;5.60;4.30;;;18.50;99.90;;;;;;4990328;28;20186;-60
2022/06/27 05:59:33;;;;;;;4.37;3.90;;;18.50;99.90;;;;;;4991228;28;20930;-61
2022/06/27 06:02:00;;;;;;;9.23;6.00;;;18.60;99.90;;;;;;4986562;28;20202;-61
2022/06/27 06:04:26;;;;;;;5.87;5.27;;;18.60;99.90;;;;;;4991093;28;20424;-61
2022/06/27 06:06:52;;;;;;;5.47;4.80;;;18.70;99.90;;;;;;4992131;28;20446;-61
2022/06/27 06:09:18;;;;;;;9.40;7.03;;;18.90;99.90;;;;;;4991249;28;20470;-60
2022/06/27 06:11:46;;;;;;;16.10;9.63;;;19.00;99.90;;;;;;4987250;28;21044;-61
2022/06/27 06:14:12;;;;;;;22.53;12.87;;;19.20;99.90;;;;;;4987881;28;20181;-61
2022/06/27 06:16:38;;;;;;;26.47;13.00;;;19.30;99.90;;;;;;4982544;28;20426;-60
2022/06/27 06:19:04;;;;;;;40.17;19.60;;;19.40;99.90;;;;;;4970032;28;20417;-61
2022/06/27 06:21:30;;;;;;;34.37;18.13;;;19.50;99.90;;;;;;4973982;28;20829;-61
2022/06/27 06:23:57;;;;;;;23.33;11.90;;;19.60;99.90;;;;;;4990497;28;20412;-60
2022/06/27 06:26:24;;;;;;;19.90;11.90;;;19.60;99.90;;;;;;4991433;28;20185;-61
2022/06/27 06:28:51;;;;;;;17.37;10.90;;;19.60;99.90;;;;;;4991537;28;20586;-60
2022/06/27 06:31:23;;;;;;;22.30;11.57;;;19.70;99.90;;;;;;4977239;28;20472;-60
2022/06/27 06:33:53;;;;;;;16.90;10.20;;;19.60;99.90;;;;;;4974584;28;20496;-62
2022/06/27 06:36:21;;;;;;;14.57;7.13;;;19.60;99.90;;;;;;4990309;28;20425;-61
2022/06/27 06:38:49;;;;;;;12.43;7.17;;;19.70;99.90;;;;;;4982339;28;20510;-61
2022/06/27 06:41:14;;;;;;;16.20;7.77;;;19.80;99.90;;;;;;4987873;28;20447;-61
2022/06/27 06:43:41;;;;;;;6.60;4.50;;;19.90;99.90;;;;;;4990571;28;20523;-61
2022/06/27 06:46:09;;;;;;;6.33;4.27;;;20.10;99.90;;;;;;4990507;28;20196;-61
2022/06/27 06:48:37;;;;;;;10.40;5.63;;;20.20;99.90;;;;;;4975751;28;20444;-61
2022/06/27 06:51:03;;;;;;;8.20;5.17;;;20.40;99.90;;;;;;4979186;28;20445;-61
2022/06/27 06:53:29;;;;;;;6.90;4.90;;;20.60;99.90;;;;;;4971688;28;20989;-61
2022/06/27 06:55:57;;;;;;;10.43;6.63;;;20.70;99.90;;;;;;4986201;28;20432;-61
2022/06/27 06:58:24;;;;;;;8.50;5.33;;;20.80;99.90;;;;;;4988480;28;20201;-61
2022/06/27 07:00:54;;;;;;;10.03;5.30;;;20.90;99.90;;;;;;4991213;28;20925;-61
2022/06/27 07:03:20;;;;;;;11.27;5.80;;;21.00;99.90;;;;;;4982077;28;20843;-61
2022/06/27 07:05:46;;;;;;;7.20;5.30;;;21.00;99.90;;;;;;4989780;28;20452;-61
2022/06/27 07:08:12;;;;;;;8.40;5.17;;;21.10;99.90;;;;;;4977359;28;20950;-61
2022/06/27 07:10:39;;;;;;;8.60;4.23;;;21.20;99.90;;;;;;4981486;28;20461;-61
2022/06/27 07:13:06;;;;;;;6.70;4.07;;;21.20;99.90;;;;;;4988124;28;20452;-61
2022/06/27 07:15:33;;;;;;;6.57;3.27;;;21.10;99.90;;;;;;4989796;28;20443;-61
2022/06/27 07:18:02;;;;;;;7.10;3.23;;;21.10;99.90;;;;;;4990459;28;20759;-61
2022/06/27 07:20:30;;;;;;;3.40;2.83;;;21.00;99.90;;;;;;4974238;28;20469;-61
2022/06/27 07:22:55;;;;;;;5.57;2.37;;;21.00;99.90;;;;;;4984228;28;20821;-61
2022/06/27 07:25:22;;;;;;;3.10;2.37;;;20.90;99.90;;;;;;4987541;28;20421;-61
2022/06/27 07:27:48;;;;;;;2.30;2.00;;;20.90;99.90;;;;;;4985981;28;20172;-61
2022/06/27 07:30:15;;;;;;;2.27;2.03;;;21.00;99.90;;;;;;4990192;28;20488;-61
2022/06/27 07:32:42;;;;;;;2.70;2.10;;;21.00;99.90;;;;;;4988201;28;20540;-62
2022/06/27 07:35:12;;;;;;;4.20;2.20;;;21.00;99.90;;;;;;4980323;28;20453;-62
2022/06/27 07:37:49;;;;;;;4.73;2.80;;;21.00;99.90;;;;;;4975498;28;21083;-62
2022/06/27 07:40:20;;;;;;;2.47;2.20;;;21.00;99.90;;;;;;4988808;28;20438;-62
2022/06/27 07:42:48;;;;;;;2.40;2.13;;;21.20;99.90;;;;;;4978595;28;20425;-62
2022/06/27 07:45:14;;;;;;;1.80;1.70;;;21.40;99.90;;;;;;4969793;28;20409;-61
2022/06/27 07:47:42;;;;;;;1.67;1.57;;;21.50;99.90;;;;;;4970477;28;20420;-62
2022/06/27 07:50:09;;;;;;;2.10;2.00;;;21.50;99.90;;;;;;4988235;28;20498;-61
2022/06/27 07:53:11;;;;;;;1.83;1.30;;;21.50;99.90;;;;;;4988043;28;20543;-62
2022/06/27 07:55:24;;;;;;;4.30;1.40;;;21.60;99.90;;;;;;4969624;28;20512;-62
2022/06/27 07:57:52;;;;;;;2.30;1.17;;;21.60;99.90;;;;;;4986699;28;20474;-61
2022/06/27 08:00:19;;;;;;;4.07;1.93;;;21.60;99.90;;;;;;4970834;28;20393;-61
2022/06/27 08:02:45;;;;;;;2.00;1.63;;;21.50;99.90;;;;;;4986311;28;20424;-62
2022/06/27 08:05:11;;;;;;;1.37;1.13;;;21.30;99.90;;;;;;4989098;28;20867;-61
2022/06/27 08:07:37;;;;;;;1.37;1.20;;;21.20;99.90;;;;;;4989577;28;20986;-62
2022/06/27 08:10:05;;;;;;;1.03;1.03;;;21.20;99.90;;;;;;4987855;28;20231;-61
2022/06/27 08:12:32;;;;;;;5.43;0.90;;;21.20;99.90;;;;;;4977713;28;20509;-62
2022/06/27 08:14:59;;;;;;;1.03;0.90;;;21.40;99.90;;;;;;4972654;28;20960;-61
2022/06/27 08:17:25;;;;;;;1.20;1.10;;;21.50;99.90;;;;;;4985160;28;20959;-62
2022/06/27 08:19:51;;;;;;;1.00;0.90;;;21.60;99.90;;;;;;4986043;28;20584;-62
2022/06/27 08:22:16;;;;;;;2.60;1.07;;;21.70;99.90;;;;;;4990878;28;20466;-62
2022/06/27 08:24:42;;;;;;;2.10;1.10;;;21.70;99.90;;;;;;4992535;28;20223;-62
2022/06/27 08:27:08;;;;;;;1.20;1.10;;;21.70;99.90;;;;;;4988916;28;20176;-62
2022/06/27 08:29:34;;;;;;;1.23;1.10;;;21.70;99.90;;;;;;4977238;28;20434;-61
2022/06/27 08:32:00;;;;;;;5.70;1.53;;;21.70;99.90;;;;;;4986818;28;20292;-61
2022/06/27 08:34:26;;;;;;;4.47;0.93;;;21.80;99.90;;;;;;4984716;28;20423;-62
2022/06/27 08:36:52;;;;;;;1.20;1.00;;;22.00;99.90;;;;;;4987906;28;20177;-62
2022/06/27 08:39:18;;;;;;;1.17;0.90;;;21.90;99.90;;;;;;4988897;28;20184;-61
2022/06/27 08:41:45;;;;;;;1.90;1.20;;;21.80;99.90;;;;;;4989476;28;20627;-62
2022/06/27 08:44:12;;;;;;;1.30;1.20;;;21.70;99.90;;;;;;4992952;28;21312;-61
2022/06/27 08:46:38;;;;;;;1.30;1.20;;;21.60;99.90;;;;;;4982171;28;20433;-61
2022/06/27 08:49:05;;;;;;;2.23;1.57;;;21.40;99.90;;;;;;4974636;28;20421;-61
2022/06/27 08:51:33;;;;;;;1.77;1.10;;;21.30;99.90;;;;;;4973712;28;20480;-61
2022/06/27 08:54:00;;;;;;;3.30;1.53;;;21.20;99.90;;;;;;4985602;28;20468;-62
2022/06/27 08:56:28;;;;;;;1.50;1.40;;;21.10;99.90;;;;;;4993487;28;20411;-62
2022/06/27 08:58:58;;;;;;;1.83;1.47;;;21.00;99.90;;;;;;4993244;28;20914;-61
2022/06/27 09:01:27;;;;;;;1.30;1.17;;;21.00;99.90;;;;;;4982644;28;20492;-62
2022/06/27 09:03:58;;;;;;;2.70;1.60;;;21.20;99.90;;;;;;4979618;28;20420;-61
2022/06/27 09:06:26;;;;;;;4.43;1.30;;;21.50;99.90;;;;;;4987160;28;20417;-62
2022/06/27 09:09:05;;;;;;;3.33;1.30;;;21.80;99.90;;;;;;4977960;28;20432;-61
2022/06/27 09:11:35;;;;;;;1.60;1.40;;;22.00;99.90;;;;;;4990147;28;20502;-61
2022/06/27 09:14:01;;;;;;;1.53;1.43;;;22.10;99.90;;;;;;4991653;28;20884;-62
2022/06/27 09:16:27;;;;;;;2.10;1.50;;;22.30;99.90;;;;;;4992916;28;21052;-62
2022/06/27 09:18:55;;;;;;;1.50;1.20;;;22.40;99.90;;;;;;4990312;28;20470;-61
2022/06/27 09:21:22;;;;;;;1.50;1.30;;;22.40;99.90;;;;;;4993053;28;20190;-61
2022/06/27 09:23:58;;;;;;;2.10;1.67;;;22.30;98.80;;;;;;4991080;28;20491;-62
2022/06/27 09:26:35;;;;;;;2.03;1.13;;;22.30;99.90;;;;;;4992696;28;20799;-62
2022/06/27 09:29:03;;;;;;;2.00;1.20;;;22.50;99.90;;;;;;4977733;28;20444;-62
2022/06/27 09:31:35;;;;;;;1.80;1.13;;;22.60;98.30;;;;;;4986030;28;20467;-62
2022/06/27 09:34:03;;;;;;;3.90;1.50;;;22.70;99.10;;;;;;4991896;28;20478;-62
2022/06/27 09:36:31;;;;;;;1.40;1.20;;;22.80;99.70;;;;;;4979284;28;20469;-62
2022/06/27 09:38:57;;;;;;;1.77;1.10;;;23.00;96.50;;;;;;4979949;28;21040;-62
2022/06/27 09:41:30;;;;;;;1.20;1.10;;;23.10;97.90;;;;;;4979049;28;20441;-62
2022/06/27 09:44:06;;;;;;;3.00;2.37;;;23.30;99.10;;;;;;4972430;28;20225;-62
2022/06/27 09:46:35;;;;;;;1.23;1.13;;;23.50;93.20;;;;;;4982965;28;20419;-62
2022/06/27 09:49:03;;;;;;;2.00;1.20;;;23.60;94.70;;;;;;4992487;28;20454;-63
2022/06/27 09:51:34;;;;;;;1.77;1.47;;;23.70;92.00;;;;;;4990237;28;20494;-63
2022/06/27 09:54:08;;;;;;;1.30;1.20;;;23.80;87.40;;;;;;4990684;28;20471;-62
2022/06/27 09:56:37;;;;;;;1.57;1.10;;;23.90;84.20;;;;;;4991383;28;20499;-62
2022/06/27 09:59:04;;;;;;;2.30;1.30;;;23.80;86.00;;;;;;4988768;28;20424;-61
2022/06/27 10:01:30;;;;;;;1.53;1.43;;;23.70;89.50;;;;;;4972716;28;20568;-62
2022/06/27 10:03:57;;;;;;;3.50;1.40;;;23.50;91.40;;;;;;4980826;28;20459;-61
2022/06/27 10:06:25;;;;;;;2.87;1.30;;;23.40;94.70;;;;;;4989659;28;20396;-62
2022/06/27 10:08:51;;;;;;;1.43;1.30;;;23.40;95.10;;;;;;4989356;28;20933;-61
2022/06/27 10:11:17;;;;;;;1.10;1.10;;;23.50;95.20;;;;;;4991648;28;20531;-61
2022/06/27 10:13:43;;;;;;;1.60;1.50;;;23.60;97.00;;;;;;4991224;28;20558;-62
2022/06/27 10:16:08;;;;;;;1.60;1.50;;;23.90;91.50;;;;;;4970309;28;20585;-61
2022/06/27 10:19:13;;;;;;;1.57;1.30;;;23.90;90.60;;;;;;4987760;28;21301;-62
2022/06/27 10:21:45;;;;;;;3.73;1.30;;;23.70;89.30;;;;;;4950324;28;20232;-62
2022/06/27 10:24:26;;;;;;;2.83;1.30;;;23.50;92.50;;;;;;4974232;28;20618;-61
2022/06/27 10:26:54;;;;;;;1.57;1.47;;;23.20;90.90;;;;;;5001235;28;20485;-61
2022/06/27 10:29:47;;;;;;;1.43;1.33;;;23.10;93.60;;;;;;4995957;28;20452;-61
2022/06/27 10:32:46;;;;;;;2.73;1.83;;;22.90;93.70;;;;;;4977759;28;20657;-62
2022/06/27 10:35:13;;;;;;;1.60;1.43;;;22.80;95.70;;;;;;4989893;28;20428;-61
2022/06/27 10:37:41;;;;;;;1.40;1.30;;;22.70;92.60;;;;;;4990213;28;20428;-62
2022/06/27 10:40:19;;;;;;;1.50;1.40;;;22.60;93.80;;;;;;4990025;28;20430;-61
2022/06/27 10:42:52;;;;;;;1.30;1.20;;;22.50;95.70;;;;;;4991105;28;20392;-61
2022/06/27 10:45:21;;;;;;;2.17;1.50;;;22.40;97.20;;;;;;4990647;28;20431;-60
2022/06/27 10:47:58;;;;;;;2.17;1.50;;;22.30;96.90;;;;;;4986599;28;20961;-60
2022/06/27 10:50:26;;;;;;;1.53;1.43;;;22.20;99.60;;;;;;4987921;28;20925;-61
2022/06/27 10:53:27;;;;;;;3.67;1.60;;;22.10;99.40;;;;;;4989204;28;20460;-61
2022/06/27 10:55:53;;;;;;;1.93;1.50;;;21.90;99.90;;;;;;4987667;28;20424;-61
2022/06/27 10:58:24;;;;;;;2.60;1.60;;;21.80;99.90;;;;;;4984422;28;20428;-61
2022/06/27 11:00:50;;;;;;;1.60;1.50;;;21.80;99.80;;;;;;4983146;28;20685;-57
2022/06/27 11:03:24;;;;;;;1.83;1.57;;;21.70;99.90;;;;;;4984664;28;20428;-61
2022/06/27 11:06:04;;;;;;;2.43;1.50;;;21.70;99.90;;;;;;4972965;28;20439;-62
2022/06/27 11:08:34;;;;;;;2.50;1.67;;;21.70;99.90;;;;;;4984470;28;20421;-61
2022/06/27 11:11:01;;;;;;;2.63;1.70;;;21.70;99.90;;;;;;4977482;28;21151;-61
2022/06/27 11:13:47;;;;;;;1.93;1.70;;;21.70;99.90;;;;;;4976907;28;20983;-61
2022/06/27 11:16:20;;;;;;;2.50;1.87;;;21.80;99.90;;;;;;4982628;28;20432;-61
2022/06/27 11:18:49;;;;;;;2.27;2.07;;;21.70;99.90;;;;;;4980471;28;20479;-61
2022/06/27 11:21:26;;;;;;;2.23;1.97;;;21.70;99.90;;;;;;4981799;28;20467;-61
2022/06/27 11:23:53;;;;;;;3.40;1.70;;;21.70;99.90;;;;;;4978851;28;20432;-61
2022/06/27 11:26:20;;;;;;;2.30;1.70;;;21.60;99.90;;;;;;4981537;28;20436;-61
2022/06/27 11:34:15;;;;;;;1.87;1.60;;;21.20;99.90;;;;;;4980872;28;20955;-61
2022/06/27 11:36:41;;;;;;;5.43;1.63;;;21.20;99.90;;;;;;4980707;28;20429;-61
2022/06/27 11:39:07;;;;;;;2.80;1.80;;;21.00;99.90;;;;;;4977987;28;20528;-61
2022/06/27 11:41:37;;;;;;;2.80;2.10;;;20.90;99.90;;;;;;4975398;28;20543;-62
2022/06/27 11:44:07;;;;;;;1.60;1.50;;;20.80;99.90;;;;;;4976141;28;20182;-61
2022/06/27 11:46:32;;;;;;;2.37;2.10;;;20.70;99.90;;;;;;4978911;28;20432;-62
2022/06/27 11:49:06;;;;;;;2.80;1.83;;;20.70;99.90;;;;;;4978464;28;20423;-65
2022/06/27 11:51:34;;;;;;;1.77;1.67;;;20.60;99.90;;;;;;4979191;28;20229;-63
2022/06/27 11:54:03;;;;;;;9.40;1.93;;;20.60;99.90;;;;;;4979723;28;20464;-63
2022/06/27 11:56:31;;;;;;;1.87;1.77;;;20.60;99.90;;;;;;4978487;28;20428;-63
2022/06/27 11:58:58;;;;;;;1.83;1.73;;;20.50;99.90;;;;;;4982655;28;20416;-63
2022/06/27 12:01:24;;;;;;;2.43;2.23;;;20.40;99.90;;;;;;4982009;28;20463;-62
2022/06/27 12:04:12;;;;;;;3.17;2.43;;;20.40;99.90;;;;;;4981863;28;20421;-64
2022/06/27 12:07:07;;;;;;;3.40;2.60;;;20.30;99.90;;;;;;4977119;28;20437;-62
2022/06/27 12:09:50;;;;;;;2.60;2.20;;;20.30;99.90;;;;;;4983063;28;20447;-57
2022/06/27 12:12:20;;;;;;;2.40;2.20;;;20.30;99.90;;;;;;4978753;28;21481;-56
2022/06/27 12:14:48;;;;;;;6.60;2.00;;;20.20;99.90;;;;;;4974096;28;20429;-60
2022/06/27 12:17:15;;;;;;;5.57;2.00;;;20.20;99.90;;;;;;4983012;28;20438;-59
2022/06/27 12:19:42;;;;;;;2.77;1.60;;;20.20;99.90;;;;;;4988763;28;20416;-60
2022/06/27 12:22:18;;;;;;;3.80;1.83;;;20.20;99.90;;;;;;4988806;28;20873;-60
2022/06/27 12:24:45;;;;;;;3.83;1.80;;;20.10;99.90;;;;;;4984133;28;20424;-59
2022/06/27 12:27:10;;;;;;;1.90;1.80;;;20.10;99.90;;;;;;4987944;28;20405;-59
2022/06/27 12:29:36;;;;;;;3.57;2.10;;;20.10;99.90;;;;;;4987334;28;20448;-60
2022/06/27 12:32:02;;;;;;;2.97;1.70;;;20.10;99.90;;;;;;4982511;28;20301;-57
2022/06/27 12:34:28;;;;;;;3.90;1.87;;;20.10;99.90;;;;;;4988703;28;20181;-59
2022/06/27 12:36:54;;;;;;;5.33;1.93;;;20.10;99.90;;;;;;4988151;28;20177;-60
2022/06/27 12:39:20;;;;;;;1.83;1.73;;;20.20;99.90;;;;;;4984514;28;20437;-58
2022/06/27 12:41:46;;;;;;;4.10;1.90;;;20.20;99.90;;;;;;4985979;28;20475;-57
2022/06/27 12:44:11;;;;;;;5.43;1.87;;;20.20;99.90;;;;;;4986389;28;20265;-57
2022/06/27 12:46:37;;;;;;;7.03;1.57;;;20.30;99.90;;;;;;4987737;28;20187;-58
2022/06/27 12:49:03;;;;;;;1.70;1.60;;;20.50;99.90;;;;;;4969677;28;20669;-58
2022/06/27 12:51:29;;;;;;;2.27;1.80;;;20.50;99.90;;;;;;4982271;28;20209;-59
2022/06/27 12:53:55;;;;;;;2.17;1.97;;;20.50;99.90;;;;;;4989911;28;20308;-58
2022/06/27 12:56:22;;;;;;;3.97;1.70;;;20.60;99.90;;;;;;4991149;28;20800;-58